sensor_id;sensor_type;location;lat;lon;timestamp;temperature;humidity
6252;DHT22;3159;52.414;9.784;2022-09-27T00:02:08;11.50;99.90
6252;DHT22;3159;52.414;9.784;2022-09-27T00:04:35;11.40;99.90
6252;DHT22;3159;52.414;9.784;2022-09-27T00:07:01;11.40;99.90
6252;DHT22;3159;52.414;9.784;2022-09-27T00:09:28;11.40;99.90
6252;DHT22;3159;52.414;9.784;2022-09-27T00:11:55;11.40;99.90
6252;DHT22;3159;52.414;9.784;2022-09-27T00:14:22;11.40;99.90
6252;DHT22;3159;52.414;9.784;2022-09-27T00:16:50;11.50;99.90
6252;DHT22;3159;52.414;9.784;2022-09-27T00:19:19;11.50;99.90
6252;DHT22;3159;52.414;9.784;2022-09-27T00:21:48;11.40;99.90
6252;DHT22;3159;52.414;9.784;2022-09-27T00:24:17;11.40;99.90
6252;DHT22;3159;52.414;9.784;2022-09-27T00:26:45;11.30;99.90
6252;DHT22;3159;52.414;9.784;2022-09-27T00:29:12;11.30;99.90
6252;DHT22;3159;52.414;9.784;2022-09-27T00:31:39;11.30;99.90
6252;DHT22;3159;52.414;9.784;2022-09-27T00:36:39;11.40;99.90
6252;DHT22;3159;52.414;9.784;2022-09-27T00:39:05;11.40;99.90
6252;DHT22;3159;52.414;9.784;2022-09-27T00:41:34;11.30;99.90
6252;DHT22;3159;52.414;9.784;2022-09-27T00:44:03;11.40;99.90
6252;DHT22;3159;52.414;9.784;2022-09-27T00:46:34;11.50;99.90
6252;DHT22;3159;52.414;9.784;2022-09-27T00:49:06;11.50;99.90
6252;DHT22;3159;52.414;9.784;2022-09-27T00:51:38;11.40;99.90
6252;DHT22;3159;52.414;9.784;2022-09-27T00:54:09;11.40;99.90
6252;DHT22;3159;52.414;9.784;2022-09-27T00:56:37;11.40;99.90
6252;DHT22;3159;52.414;9.784;2022-09-27T00:59:08;11.40;99.90
6252;DHT22;3159;52.414;9.784;2022-09-27T01:01:36;11.50;99.90
6252;DHT22;3159;52.414;9.784;2022-09-27T01:04:06;11.50;99.90
6252;DHT22;3159;52.414;9.784;2022-09-27T01:06:34;11.40;99.90
6252;DHT22;3159;52.414;9.784;2022-09-27T01:09:02;11.50;99.90
6252;DHT22;3159;52.414;9.784;2022-09-27T01:11:39;11.60;99.90
6252;DHT22;3159;52.414;9.784;2022-09-27T01:14:22;11.60;99.90
6252;DHT22;3159;52.414;9.784;2022-09-27T01:16:59;11.60;99.90
6252;DHT22;3159;52.414;9.784;2022-09-27T01:22:23;11.50;99.90
6252;DHT22;3159;52.414;9.784;2022-09-27T01:25:02;11.50;99.90
6252;DHT22;3159;52.414;9.784;2022-09-27T01:30:29;11.60;99.90
6252;DHT22;3159;52.414;9.784;2022-09-27T01:33:17;11.60;99.90
6252;DHT22;3159;52.414;9.784;2022-09-27T01:35:56;11.60;99.90
6252;DHT22;3159;52.414;9.784;2022-09-27T01:38:33;11.70;99.90
6252;DHT22;3159;52.414;9.784;2022-09-27T01:41:07;11.70;99.90
6252;DHT22;3159;52.414;9.784;2022-09-27T01:43:41;11.70;99.90
6252;DHT22;3159;52.414;9.784;2022-09-27T01:46:14;11.70;99.90
6252;DHT22;3159;52.414;9.784;2022-09-27T01:48:46;11.70;99.90
6252;DHT22;3159;52.414;9.784;2022-09-27T01:51:17;11.70;99.90
6252;DHT22;3159;52.414;9.784;2022-09-27T01:53:47;11.70;99.90
6252;DHT22;3159;52.414;9.784;2022-09-27T01:56:19;11.60;99.90
6252;DHT22;3159;52.414;9.784;2022-09-27T01:58:52;11.60;99.90
6252;DHT22;3159;52.414;9.784;2022-09-27T02:01:23;11.60;99.90
6252;DHT22;3159;52.414;9.784;2022-09-27T02:03:53;11.60;99.90
6252;DHT22;3159;52.414;9.784;2022-09-27T02:06:24;11.60;99.90
6252;DHT22;3159;52.414;9.784;2022-09-27T02:08:58;11.60;99.90
6252;DHT22;3159;52.414;9.784;2022-09-27T02:11:27;11.70;99.90
6252;DHT22;3159;52.414;9.784;2022-09-27T02:13:57;11.70;99.90
6252;DHT22;3159;52.414;9.784;2022-09-27T02:16:35;11.70;99.90
6252;DHT22;3159;52.414;9.784;2022-09-27T02:19:11;11.70;99.90
6252;DHT22;3159;52.414;9.784;2022-09-27T02:21:41;11.70;99.90
6252;DHT22;3159;52.414;9.784;2022-09-27T02:24:13;11.70;99.90
6252;DHT22;3159;52.414;9.784;2022-09-27T02:26:47;11.80;99.90
6252;DHT22;3159;52.414;9.784;2022-09-27T02:29:17;11.80;99.90
6252;DHT22;3159;52.414;9.784;2022-09-27T02:31:49;11.70;99.90
6252;DHT22;3159;52.414;9.784;2022-09-27T02:34:19;11.80;99.90
6252;DHT22;3159;52.414;9.784;2022-09-27T02:36:48;11.70;99.90
6252;DHT22;3159;52.414;9.784;2022-09-27T02:39:18;11.80;99.90
6252;DHT22;3159;52.414;9.784;2022-09-27T02:41:45;11.70;99.90
6252;DHT22;3159;52.414;9.784;2022-09-27T02:44:14;11.80;99.90
6252;DHT22;3159;52.414;9.784;2022-09-27T02:46:59;11.80;99.90
6252;DHT22;3159;52.414;9.784;2022-09-27T02:49:43;11.80;99.90
6252;DHT22;3159;52.414;9.784;2022-09-27T02:52:22;11.90;99.90
6252;DHT22;3159;52.414;9.784;2022-09-27T02:54:59;11.90;99.90
6252;DHT22;3159;52.414;9.784;2022-09-27T02:57:32;11.90;99.90
6252;DHT22;3159;52.414;9.784;2022-09-27T03:00:05;11.80;99.90
6252;DHT22;3159;52.414;9.784;2022-09-27T03:02:46;11.90;99.90
6252;DHT22;3159;52.414;9.784;2022-09-27T03:05:17;11.90;99.90
6252;DHT22;3159;52.414;9.784;2022-09-27T03:07:46;11.80;99.90
6252;DHT22;3159;52.414;9.784;2022-09-27T03:10:15;11.80;99.90
6252;DHT22;3159;52.414;9.784;2022-09-27T03:12:43;11.80;99.90
6252;DHT22;3159;52.414;9.784;2022-09-27T03:15:10;11.80;99.90
6252;DHT22;3159;52.414;9.784;2022-09-27T03:17:38;11.70;99.90
6252;DHT22;3159;52.414;9.784;2022-09-27T03:20:05;11.80;99.90
6252;DHT22;3159;52.414;9.784;2022-09-27T03:22:33;11.80;99.90
6252;DHT22;3159;52.414;9.784;2022-09-27T03:25:00;11.70;99.90
6252;DHT22;3159;52.414;9.784;2022-09-27T03:27:27;11.70;99.90
6252;DHT22;3159;52.414;9.784;2022-09-27T03:29:54;11.60;99.90
6252;DHT22;3159;52.414;9.784;2022-09-27T03:32:21;11.70;99.90
6252;DHT22;3159;52.414;9.784;2022-09-27T03:34:49;11.80;99.90
6252;DHT22;3159;52.414;9.784;2022-09-27T03:37:18;11.80;99.90
6252;DHT22;3159;52.414;9.784;2022-09-27T03:39:45;11.80;99.90
6252;DHT22;3159;52.414;9.784;2022-09-27T03:42:12;11.80;99.90
6252;DHT22;3159;52.414;9.784;2022-09-27T03:44:39;11.80;99.90
6252;DHT22;3159;52.414;9.784;2022-09-27T03:47:06;11.80;99.90
6252;DHT22;3159;52.414;9.784;2022-09-27T03:49:33;11.70;99.90
6252;DHT22;3159;52.414;9.784;2022-09-27T03:52:01;11.70;99.90
6252;DHT22;3159;52.414;9.784;2022-09-27T03:54:28;11.70;99.90
6252;DHT22;3159;52.414;9.784;2022-09-27T03:56:55;11.70;99.90
6252;DHT22;3159;52.414;9.784;2022-09-27T03:59:22;11.70;99.90
6252;DHT22;3159;52.414;9.784;2022-09-27T04:01:48;11.70;99.90
6252;DHT22;3159;52.414;9.784;2022-09-27T04:04:15;11.70;99.90
6252;DHT22;3159;52.414;9.784;2022-09-27T04:06:43;11.70;99.90
6252;DHT22;3159;52.414;9.784;2022-09-27T04:09:11;11.50;99.90
6252;DHT22;3159;52.414;9.784;2022-09-27T04:11:38;11.40;99.90
6252;DHT22;3159;52.414;9.784;2022-09-27T04:14:05;11.40;99.90
6252;DHT22;3159;52.414;9.784;2022-09-27T04:16:33;11.40;99.90
6252;DHT22;3159;52.414;9.784;2022-09-27T04:19:00;11.30;99.90
6252;DHT22;3159;52.414;9.784;2022-09-27T04:21:28;11.30;99.90
6252;DHT22;3159;52.414;9.784;2022-09-27T04:23:55;11.40;99.90
6252;DHT22;3159;52.414;9.784;2022-09-27T04:26:23;11.40;99.90
6252;DHT22;3159;52.414;9.784;2022-09-27T04:28:51;11.50;99.90
6252;DHT22;3159;52.414;9.784;2022-09-27T04:31:18;11.40;99.90
6252;DHT22;3159;52.414;9.784;2022-09-27T04:33:45;11.50;99.90
6252;DHT22;3159;52.414;9.784;2022-09-27T04:36:16;11.50;99.90
6252;DHT22;3159;52.414;9.784;2022-09-27T04:38:54;11.50;99.90
6252;DHT22;3159;52.414;9.784;2022-09-27T04:41:23;11.50;99.90
6252;DHT22;3159;52.414;9.784;2022-09-27T04:43:50;11.60;99.90
6252;DHT22;3159;52.414;9.784;2022-09-27T04:46:19;11.60;99.90
6252;DHT22;3159;52.414;9.784;2022-09-27T04:48:46;11.60;99.90
6252;DHT22;3159;52.414;9.784;2022-09-27T04:51:14;11.50;99.90
6252;DHT22;3159;52.414;9.784;2022-09-27T04:53:42;11.50;99.90
6252;DHT22;3159;52.414;9.784;2022-09-27T04:56:09;11.50;99.90
6252;DHT22;3159;52.414;9.784;2022-09-27T04:58:37;11.50;99.90
6252;DHT22;3159;52.414;9.784;2022-09-27T05:01:04;11.40;99.90
6252;DHT22;3159;52.414;9.784;2022-09-27T05:03:32;11.50;99.90
6252;DHT22;3159;52.414;9.784;2022-09-27T05:05:59;11.50;99.90
6252;DHT22;3159;52.414;9.784;2022-09-27T05:08:26;11.40;99.90
6252;DHT22;3159;52.414;9.784;2022-09-27T05:10:53;11.40;99.90
6252;DHT22;3159;52.414;9.784;2022-09-27T05:13:20;11.30;99.90
6252;DHT22;3159;52.414;9.784;2022-09-27T05:15:49;11.30;99.90
6252;DHT22;3159;52.414;9.784;2022-09-27T05:18:17;11.30;99.90
6252;DHT22;3159;52.414;9.784;2022-09-27T05:20:44;11.30;99.90
6252;DHT22;3159;52.414;9.784;2022-09-27T05:23:10;11.40;99.90
6252;DHT22;3159;52.414;9.784;2022-09-27T05:25:37;11.40;99.90
6252;DHT22;3159;52.414;9.784;2022-09-27T05:28:04;11.40;99.90
6252;DHT22;3159;52.414;9.784;2022-09-27T05:30:33;11.40;99.90
6252;DHT22;3159;52.414;9.784;2022-09-27T05:33:02;11.40;99.90
6252;DHT22;3159;52.414;9.784;2022-09-27T05:35:29;11.40;99.90
6252;DHT22;3159;52.414;9.784;2022-09-27T05:37:58;11.40;99.90
6252;DHT22;3159;52.414;9.784;2022-09-27T05:40:26;11.40;99.90
6252;DHT22;3159;52.414;9.784;2022-09-27T05:42:54;11.30;99.90
6252;DHT22;3159;52.414;9.784;2022-09-27T05:45:22;11.20;99.90
6252;DHT22;3159;52.414;9.784;2022-09-27T05:47:53;11.20;99.90
6252;DHT22;3159;52.414;9.784;2022-09-27T05:50:22;11.30;99.90
6252;DHT22;3159;52.414;9.784;2022-09-27T05:52:48;11.30;99.90
6252;DHT22;3159;52.414;9.784;2022-09-27T05:55:16;11.40;99.90
6252;DHT22;3159;52.414;9.784;2022-09-27T05:57:53;11.40;99.90
6252;DHT22;3159;52.414;9.784;2022-09-27T06:00:20;11.40;99.90
6252;DHT22;3159;52.414;9.784;2022-09-27T06:02:52;11.30;99.90
6252;DHT22;3159;52.414;9.784;2022-09-27T06:05:22;11.30;99.90
6252;DHT22;3159;52.414;9.784;2022-09-27T06:07:50;11.40;99.90
6252;DHT22;3159;52.414;9.784;2022-09-27T06:10:18;11.40;99.90
6252;DHT22;3159;52.414;9.784;2022-09-27T06:12:45;11.30;99.90
6252;DHT22;3159;52.414;9.784;2022-09-27T06:15:12;11.40;99.90
6252;DHT22;3159;52.414;9.784;2022-09-27T06:17:39;11.40;99.90
6252;DHT22;3159;52.414;9.784;2022-09-27T06:20:07;11.50;99.90
6252;DHT22;3159;52.414;9.784;2022-09-27T06:22:35;11.40;99.90
6252;DHT22;3159;52.414;9.784;2022-09-27T06:25:03;11.40;99.90
6252;DHT22;3159;52.414;9.784;2022-09-27T06:27:30;11.50;99.90
6252;DHT22;3159;52.414;9.784;2022-09-27T06:29:57;11.40;99.90
6252;DHT22;3159;52.414;9.784;2022-09-27T06:32:24;11.40;99.90
6252;DHT22;3159;52.414;9.784;2022-09-27T06:34:50;11.40;99.90
6252;DHT22;3159;52.414;9.784;2022-09-27T06:37:18;11.30;99.90
6252;DHT22;3159;52.414;9.784;2022-09-27T06:39:46;11.30;99.90
6252;DHT22;3159;52.414;9.784;2022-09-27T06:42:14;11.20;99.90
6252;DHT22;3159;52.414;9.784;2022-09-27T06:44:43;11.20;99.90
6252;DHT22;3159;52.414;9.784;2022-09-27T06:47:11;11.10;99.90
6252;DHT22;3159;52.414;9.784;2022-09-27T06:49:39;11.20;99.90
6252;DHT22;3159;52.414;9.784;2022-09-27T06:52:05;11.20;99.90
6252;DHT22;3159;52.414;9.784;2022-09-27T06:54:32;11.20;99.90
6252;DHT22;3159;52.414;9.784;2022-09-27T06:57:00;11.20;99.90
6252;DHT22;3159;52.414;9.784;2022-09-27T06:59:27;11.20;99.90
6252;DHT22;3159;52.414;9.784;2022-09-27T07:02:12;11.30;99.90
6252;DHT22;3159;52.414;9.784;2022-09-27T07:04:39;11.20;99.90
6252;DHT22;3159;52.414;9.784;2022-09-27T07:07:06;11.20;99.90
6252;DHT22;3159;52.414;9.784;2022-09-27T07:09:33;11.30;99.90
6252;DHT22;3159;52.414;9.784;2022-09-27T07:12:05;11.30;99.90
6252;DHT22;3159;52.414;9.784;2022-09-27T07:14:32;11.30;99.90
6252;DHT22;3159;52.414;9.784;2022-09-27T07:16:59;11.30;99.90
6252;DHT22;3159;52.414;9.784;2022-09-27T07:19:26;11.20;99.90
6252;DHT22;3159;52.414;9.784;2022-09-27T07:21:53;11.20;99.90
6252;DHT22;3159;52.414;9.784;2022-09-27T07:24:20;11.30;99.90
6252;DHT22;3159;52.414;9.784;2022-09-27T07:26:47;11.30;99.90
6252;DHT22;3159;52.414;9.784;2022-09-27T07:29:15;11.30;99.90
6252;DHT22;3159;52.414;9.784;2022-09-27T07:31:42;11.30;99.90
6252;DHT22;3159;52.414;9.784;2022-09-27T07:34:09;11.30;99.90
6252;DHT22;3159;52.414;9.784;2022-09-27T07:36:36;11.20;99.90
6252;DHT22;3159;52.414;9.784;2022-09-27T07:39:03;11.10;99.90
6252;DHT22;3159;52.414;9.784;2022-09-27T07:41:30;11.10;99.90
6252;DHT22;3159;52.414;9.784;2022-09-27T07:43:58;11.10;99.90
6252;DHT22;3159;52.414;9.784;2022-09-27T07:46:26;11.20;99.90
6252;DHT22;3159;52.414;9.784;2022-09-27T07:48:55;11.20;99.90
6252;DHT22;3159;52.414;9.784;2022-09-27T07:51:22;11.20;99.90
6252;DHT22;3159;52.414;9.784;2022-09-27T07:53:49;11.20;99.90
6252;DHT22;3159;52.414;9.784;2022-09-27T07:56:17;11.20;99.90
6252;DHT22;3159;52.414;9.784;2022-09-27T07:58:43;11.20;99.90
6252;DHT22;3159;52.414;9.784;2022-09-27T08:01:10;11.20;99.90
6252;DHT22;3159;52.414;9.784;2022-09-27T08:03:38;11.20;99.90
6252;DHT22;3159;52.414;9.784;2022-09-27T08:06:05;11.20;99.90
6252;DHT22;3159;52.414;9.784;2022-09-27T08:08:32;11.10;99.90
6252;DHT22;3159;52.414;9.784;2022-09-27T08:10:59;11.10;99.90
6252;DHT22;3159;52.414;9.784;2022-09-27T08:13:26;11.10;99.90
6252;DHT22;3159;52.414;9.784;2022-09-27T08:15:54;11.10;99.90
6252;DHT22;3159;52.414;9.784;2022-09-27T08:18:26;11.10;99.90
6252;DHT22;3159;52.414;9.784;2022-09-27T08:20:56;11.10;99.90
6252;DHT22;3159;52.414;9.784;2022-09-27T08:23:23;11.20;99.90
6252;DHT22;3159;52.414;9.784;2022-09-27T08:25:51;11.00;99.90
6252;DHT22;3159;52.414;9.784;2022-09-27T08:28:19;11.10;99.90
6252;DHT22;3159;52.414;9.784;2022-09-27T08:30:47;11.10;99.90
6252;DHT22;3159;52.414;9.784;2022-09-27T08:33:14;11.10;99.90
6252;DHT22;3159;52.414;9.784;2022-09-27T08:35:41;11.20;99.90
6252;DHT22;3159;52.414;9.784;2022-09-27T08:38:10;11.10;99.90
6252;DHT22;3159;52.414;9.784;2022-09-27T08:40:49;10.90;99.90
6252;DHT22;3159;52.414;9.784;2022-09-27T08:43:22;10.90;99.90
6252;DHT22;3159;52.414;9.784;2022-09-27T08:46:04;11.00;99.90
6252;DHT22;3159;52.414;9.784;2022-09-27T08:48:34;11.00;99.90
6252;DHT22;3159;52.414;9.784;2022-09-27T08:51:04;11.00;99.90
6252;DHT22;3159;52.414;9.784;2022-09-27T08:53:38;11.20;99.90
6252;DHT22;3159;52.414;9.784;2022-09-27T08:56:07;11.10;99.90
6252;DHT22;3159;52.414;9.784;2022-09-27T08:58:38;11.10;99.90
6252;DHT22;3159;52.414;9.784;2022-09-27T09:01:12;11.20;99.90
6252;DHT22;3159;52.414;9.784;2022-09-27T09:03:44;11.20;99.90
6252;DHT22;3159;52.414;9.784;2022-09-27T09:06:17;11.20;99.90
6252;DHT22;3159;52.414;9.784;2022-09-27T09:09:02;11.40;99.90
6252;DHT22;3159;52.414;9.784;2022-09-27T09:11:41;11.40;99.90
6252;DHT22;3159;52.414;9.784;2022-09-27T09:14:53;11.40;99.90
6252;DHT22;3159;52.414;9.784;2022-09-27T09:17:34;11.40;99.90
6252;DHT22;3159;52.414;9.784;2022-09-27T09:20:15;11.50;99.90
6252;DHT22;3159;52.414;9.784;2022-09-27T09:22:56;11.50;99.90
6252;DHT22;3159;52.414;9.784;2022-09-27T09:25:34;11.70;99.90
6252;DHT22;3159;52.414;9.784;2022-09-27T09:28:10;12.10;99.90
6252;DHT22;3159;52.414;9.784;2022-09-27T09:30:44;12.40;99.90
6252;DHT22;3159;52.414;9.784;2022-09-27T09:33:20;12.20;99.90
6252;DHT22;3159;52.414;9.784;2022-09-27T09:35:51;12.10;99.90
6252;DHT22;3159;52.414;9.784;2022-09-27T09:38:28;12.20;99.90
6252;DHT22;3159;52.414;9.784;2022-09-27T09:41:04;12.30;99.90
6252;DHT22;3159;52.414;9.784;2022-09-27T09:43:34;12.40;99.90
6252;DHT22;3159;52.414;9.784;2022-09-27T09:46:09;12.60;99.90
6252;DHT22;3159;52.414;9.784;2022-09-27T09:48:41;12.50;99.90
6252;DHT22;3159;52.414;9.784;2022-09-27T09:51:14;12.50;99.90
6252;DHT22;3159;52.414;9.784;2022-09-27T09:53:52;12.80;99.90
6252;DHT22;3159;52.414;9.784;2022-09-27T09:56:23;12.70;99.90
6252;DHT22;3159;52.414;9.784;2022-09-27T09:58:54;12.70;99.90
6252;DHT22;3159;52.414;9.784;2022-09-27T10:01:26;12.40;99.90
6252;DHT22;3159;52.414;9.784;2022-09-27T10:03:54;12.30;99.90
6252;DHT22;3159;52.414;9.784;2022-09-27T10:06:22;12.40;99.90
6252;DHT22;3159;52.414;9.784;2022-09-27T10:08:49;12.50;99.90
6252;DHT22;3159;52.414;9.784;2022-09-27T10:11:22;12.40;99.90
6252;DHT22;3159;52.414;9.784;2022-09-27T10:13:50;12.50;99.90
6252;DHT22;3159;52.414;9.784;2022-09-27T10:16:20;12.60;99.90
6252;DHT22;3159;52.414;9.784;2022-09-27T10:18:49;12.50;99.90
6252;DHT22;3159;52.414;9.784;2022-09-27T10:21:20;12.50;99.90
6252;DHT22;3159;52.414;9.784;2022-09-27T10:24:08;12.60;99.90
6252;DHT22;3159;52.414;9.784;2022-09-27T10:26:38;12.90;99.90
6252;DHT22;3159;52.414;9.784;2022-09-27T10:29:29;13.10;99.90
6252;DHT22;3159;52.414;9.784;2022-09-27T10:31:58;13.10;99.90
6252;DHT22;3159;52.414;9.784;2022-09-27T10:34:29;13.10;99.90
6252;DHT22;3159;52.414;9.784;2022-09-27T10:37:08;12.90;99.90
6252;DHT22;3159;52.414;9.784;2022-09-27T10:39:42;12.90;99.90
6252;DHT22;3159;52.414;9.784;2022-09-27T10:42:21;12.70;99.90
6252;DHT22;3159;52.414;9.784;2022-09-27T10:44:48;12.50;99.90
6252;DHT22;3159;52.414;9.784;2022-09-27T10:47:18;12.70;99.90
6252;DHT22;3159;52.414;9.784;2022-09-27T10:49:47;12.70;99.90
6252;DHT22;3159;52.414;9.784;2022-09-27T10:52:18;12.60;99.90
6252;DHT22;3159;52.414;9.784;2022-09-27T10:54:52;12.60;99.90
6252;DHT22;3159;52.414;9.784;2022-09-27T10:57:23;12.70;99.90
6252;DHT22;3159;52.414;9.784;2022-09-27T10:59:52;12.80;99.90
6252;DHT22;3159;52.414;9.784;2022-09-27T11:02:22;13.40;99.90
6252;DHT22;3159;52.414;9.784;2022-09-27T11:05:09;13.80;99.90
6252;DHT22;3159;52.414;9.784;2022-09-27T11:07:47;14.80;99.90
6252;DHT22;3159;52.414;9.784;2022-09-27T11:10:22;15.20;99.90
6252;DHT22;3159;52.414;9.784;2022-09-27T11:15:59;15.80;99.90
6252;DHT22;3159;52.414;9.784;2022-09-27T11:18:39;15.60;99.90
6252;DHT22;3159;52.414;9.784;2022-09-27T11:21:18;15.40;99.90
6252;DHT22;3159;52.414;9.784;2022-09-27T11:24:08;15.00;99.90
6252;DHT22;3159;52.414;9.784;2022-09-27T11:26:46;14.70;99.90
6252;DHT22;3159;52.414;9.784;2022-09-27T11:29:23;14.30;99.90
6252;DHT22;3159;52.414;9.784;2022-09-27T11:32:09;14.10;99.90
6252;DHT22;3159;52.414;9.784;2022-09-27T11:34:49;14.10;99.90
6252;DHT22;3159;52.414;9.784;2022-09-27T11:37:29;15.00;99.90
6252;DHT22;3159;52.414;9.784;2022-09-27T11:40:04;14.80;99.90
6252;DHT22;3159;52.414;9.784;2022-09-27T11:42:50;14.60;99.90
6252;DHT22;3159;52.414;9.784;2022-09-27T11:45:38;14.00;99.90
6252;DHT22;3159;52.414;9.784;2022-09-27T11:48:22;13.60;99.90
6252;DHT22;3159;52.414;9.784;2022-09-27T11:51:06;13.10;99.90
6252;DHT22;3159;52.414;9.784;2022-09-27T11:53:57;12.60;99.90
6252;DHT22;3159;52.414;9.784;2022-09-27T11:56:36;12.50;99.90
6252;DHT22;3159;52.414;9.784;2022-09-27T11:59:25;12.50;99.90
6252;DHT22;3159;52.414;9.784;2022-09-27T12:02:00;12.50;99.90
6252;DHT22;3159;52.414;9.784;2022-09-27T12:04:44;12.40;99.90
6252;DHT22;3159;52.414;9.784;2022-09-27T12:07:20;12.40;99.90
6252;DHT22;3159;52.414;9.784;2022-09-27T12:09:55;12.30;99.90
6252;DHT22;3159;52.414;9.784;2022-09-27T12:12:25;12.30;99.90
6252;DHT22;3159;52.414;9.784;2022-09-27T12:14:56;12.20;99.90
6252;DHT22;3159;52.414;9.784;2022-09-27T12:17:27;12.20;99.90
6252;DHT22;3159;52.414;9.784;2022-09-27T12:19:58;12.00;99.90
6252;DHT22;3159;52.414;9.784;2022-09-27T12:22:29;12.10;99.90
6252;DHT22;3159;52.414;9.784;2022-09-27T12:24:58;11.80;99.90
6252;DHT22;3159;52.414;9.784;2022-09-27T12:27:32;12.00;99.90
6252;DHT22;3159;52.414;9.784;2022-09-27T12:30:01;11.90;99.90
6252;DHT22;3159;52.414;9.784;2022-09-27T12:32:32;11.50;99.90
6252;DHT22;3159;52.414;9.784;2022-09-27T12:35:09;11.50;99.90
6252;DHT22;3159;52.414;9.784;2022-09-27T12:37:43;11.40;99.90
6252;DHT22;3159;52.414;9.784;2022-09-27T12:40:17;11.40;99.90
6252;DHT22;3159;52.414;9.784;2022-09-27T12:42:49;11.50;99.90
6252;DHT22;3159;52.414;9.784;2022-09-27T12:45:18;11.40;99.90
6252;DHT22;3159;52.414;9.784;2022-09-27T12:48:00;11.30;99.90
6252;DHT22;3159;52.414;9.784;2022-09-27T12:50:35;11.20;99.90
6252;DHT22;3159;52.414;9.784;2022-09-27T12:53:09;11.20;99.90
6252;DHT22;3159;52.414;9.784;2022-09-27T12:56:03;11.30;99.90
6252;DHT22;3159;52.414;9.784;2022-09-27T12:59:08;11.40;99.90
6252;DHT22;3159;52.414;9.784;2022-09-27T13:02:11;11.50;99.90
6252;DHT22;3159;52.414;9.784;2022-09-27T13:05:00;11.40;99.90
6252;DHT22;3159;52.414;9.784;2022-09-27T13:07:44;11.40;99.90
6252;DHT22;3159;52.414;9.784;2022-09-27T13:10:34;11.20;99.90
6252;DHT22;3159;52.414;9.784;2022-09-27T13:13:10;11.20;99.90
6252;DHT22;3159;52.414;9.784;2022-09-27T13:15:38;11.40;99.90
6252;DHT22;3159;52.414;9.784;2022-09-27T13:18:20;11.40;99.90
6252;DHT22;3159;52.414;9.784;2022-09-27T13:20:53;11.50;99.90
6252;DHT22;3159;52.414;9.784;2022-09-27T13:26:47;11.40;99.90
6252;DHT22;3159;52.414;9.784;2022-09-27T13:29:31;11.50;99.90
6252;DHT22;3159;52.414;9.784;2022-09-27T13:32:20;11.50;99.90
6252;DHT22;3159;52.414;9.784;2022-09-27T13:34:49;11.30;99.90
6252;DHT22;3159;52.414;9.784;2022-09-27T13:37:46;11.50;99.90
6252;DHT22;3159;52.414;9.784;2022-09-27T13:40:26;11.50;99.90
6252;DHT22;3159;52.414;9.784;2022-09-27T13:46:15;11.60;99.90
6252;DHT22;3159;52.414;9.784;2022-09-27T13:48:47;11.60;99.90
6252;DHT22;3159;52.414;9.784;2022-09-27T13:51:22;11.70;99.90
6252;DHT22;3159;52.414;9.784;2022-09-27T13:53:56;11.70;99.90
6252;DHT22;3159;52.414;9.784;2022-09-27T13:56:50;11.80;99.90
6252;DHT22;3159;52.414;9.784;2022-09-27T13:59:27;11.90;99.90
6252;DHT22;3159;52.414;9.784;2022-09-27T14:02:01;11.90;99.90
6252;DHT22;3159;52.414;9.784;2022-09-27T14:04:34;12.00;99.90
6252;DHT22;3159;52.414;9.784;2022-09-27T14:07:03;12.00;99.90
6252;DHT22;3159;52.414;9.784;2022-09-27T14:09:32;12.10;99.90
6252;DHT22;3159;52.414;9.784;2022-09-27T14:12:02;12.20;99.90
6252;DHT22;3159;52.414;9.784;2022-09-27T14:14:32;12.20;99.90
6252;DHT22;3159;52.414;9.784;2022-09-27T14:17:02;12.30;99.90
6252;DHT22;3159;52.414;9.784;2022-09-27T14:19:32;12.30;99.90
6252;DHT22;3159;52.414;9.784;2022-09-27T14:22:01;12.50;99.90
6252;DHT22;3159;52.414;9.784;2022-09-27T14:24:42;12.40;99.90
6252;DHT22;3159;52.414;9.784;2022-09-27T14:27:14;12.20;99.90
6252;DHT22;3159;52.414;9.784;2022-09-27T14:29:46;12.10;99.90
6252;DHT22;3159;52.414;9.784;2022-09-27T14:32:15;12.10;99.90
6252;DHT22;3159;52.414;9.784;2022-09-27T14:34:42;12.10;99.90
6252;DHT22;3159;52.414;9.784;2022-09-27T14:37:22;12.00;99.90
6252;DHT22;3159;52.414;9.784;2022-09-27T14:39:57;11.90;99.90
6252;DHT22;3159;52.414;9.784;2022-09-27T14:42:26;12.00;99.90
6252;DHT22;3159;52.414;9.784;2022-09-27T14:45:00;12.00;99.90
6252;DHT22;3159;52.414;9.784;2022-09-27T14:47:28;12.00;99.90
6252;DHT22;3159;52.414;9.784;2022-09-27T14:49:57;11.80;99.90
6252;DHT22;3159;52.414;9.784;2022-09-27T14:52:26;11.60;99.90
6252;DHT22;3159;52.414;9.784;2022-09-27T14:54:57;11.40;99.90
6252;DHT22;3159;52.414;9.784;2022-09-27T14:57:25;11.20;99.90
6252;DHT22;3159;52.414;9.784;2022-09-27T14:59:53;11.20;99.90
6252;DHT22;3159;52.414;9.784;2022-09-27T15:02:24;11.20;99.90
6252;DHT22;3159;52.414;9.784;2022-09-27T15:04:53;11.10;99.90
6252;DHT22;3159;52.414;9.784;2022-09-27T15:07:20;11.00;99.90
6252;DHT22;3159;52.414;9.784;2022-09-27T15:09:48;10.90;99.90
6252;DHT22;3159;52.414;9.784;2022-09-27T15:12:23;10.90;99.90
6252;DHT22;3159;52.414;9.784;2022-09-27T15:14:52;10.90;99.90
6252;DHT22;3159;52.414;9.784;2022-09-27T15:17:20;11.00;99.90
6252;DHT22;3159;52.414;9.784;2022-09-27T15:20:16;11.10;99.90
6252;DHT22;3159;52.414;9.784;2022-09-27T15:22:44;11.10;99.90
6252;DHT22;3159;52.414;9.784;2022-09-27T15:25:17;11.10;99.90
6252;DHT22;3159;52.414;9.784;2022-09-27T15:27:49;11.20;99.90
6252;DHT22;3159;52.414;9.784;2022-09-27T15:30:19;11.30;99.90
6252;DHT22;3159;52.414;9.784;2022-09-27T15:32:49;11.10;99.90
6252;DHT22;3159;52.414;9.784;2022-09-27T15:35:25;11.20;99.90
6252;DHT22;3159;52.414;9.784;2022-09-27T15:38:09;11.20;99.90
6252;DHT22;3159;52.414;9.784;2022-09-27T15:41:05;11.10;99.90
6252;DHT22;3159;52.414;9.784;2022-09-27T15:43:34;11.00;99.90
6252;DHT22;3159;52.414;9.784;2022-09-27T15:46:23;11.10;99.90
6252;DHT22;3159;52.414;9.784;2022-09-27T15:49:21;11.00;99.90
6252;DHT22;3159;52.414;9.784;2022-09-27T15:51:51;10.90;99.90
6252;DHT22;3159;52.414;9.784;2022-09-27T15:54:19;10.90;99.90
6252;DHT22;3159;52.414;9.784;2022-09-27T15:56:47;10.90;99.90
6252;DHT22;3159;52.414;9.784;2022-09-27T15:59:20;10.90;99.90
6252;DHT22;3159;52.414;9.784;2022-09-27T16:01:48;11.00;99.90
6252;DHT22;3159;52.414;9.784;2022-09-27T16:04:15;11.00;99.90
6252;DHT22;3159;52.414;9.784;2022-09-27T16:06:42;11.00;99.90
6252;DHT22;3159;52.414;9.784;2022-09-27T16:09:14;11.00;99.90
6252;DHT22;3159;52.414;9.784;2022-09-27T16:11:43;11.00;99.90
6252;DHT22;3159;52.414;9.784;2022-09-27T16:14:10;11.00;99.90
6252;DHT22;3159;52.414;9.784;2022-09-27T16:16:41;11.00;99.90
6252;DHT22;3159;52.414;9.784;2022-09-27T16:19:08;11.10;99.90
6252;DHT22;3159;52.414;9.784;2022-09-27T16:21:35;11.10;99.90
6252;DHT22;3159;52.414;9.784;2022-09-27T16:24:03;11.20;99.90
6252;DHT22;3159;52.414;9.784;2022-09-27T16:26:32;11.20;99.90
6252;DHT22;3159;52.414;9.784;2022-09-27T16:28:59;11.20;99.90
6252;DHT22;3159;52.414;9.784;2022-09-27T16:31:26;11.20;99.90
6252;DHT22;3159;52.414;9.784;2022-09-27T16:33:53;11.20;99.90
6252;DHT22;3159;52.414;9.784;2022-09-27T16:36:20;11.30;99.90
6252;DHT22;3159;52.414;9.784;2022-09-27T16:38:48;11.30;99.90
6252;DHT22;3159;52.414;9.784;2022-09-27T16:41:15;11.20;99.90
6252;DHT22;3159;52.414;9.784;2022-09-27T16:43:43;11.30;99.90
6252;DHT22;3159;52.414;9.784;2022-09-27T16:46:11;11.30;99.90
6252;DHT22;3159;52.414;9.784;2022-09-27T16:48:40;11.30;99.90
6252;DHT22;3159;52.414;9.784;2022-09-27T16:51:10;11.40;99.90